Time;durP1;ratioP1;P1;durP2;ratioP2;P2;SDS_P1;SDS_P2;PMS_P1;PMS_P2;Temp;Humidity;BMP_temperature;BMP_pressure;BME280_temperature;BME280_humidity;BME280_pressure;Samples;Min_cycle;Max_cycle;Signal;HPM_P1;HPM_P2
2023/05/20 00:01:58;;;;;;;2.75;2.30;;;;;;;13.73;100.00;98121.47;1710443;75;672117;-73
2023/05/20 00:04:29;;;;;;;2.70;2.50;;;;;;;13.72;100.00;98110.97;1701701;75;743218;-72
2023/05/20 00:07:00;;;;;;;4.10;2.85;;;;;;;13.69;100.00;98109.19;1697449;75;1822745;-72
2023/05/20 00:09:30;;;;;;;2.30;1.90;;;;;;;13.71;100.00;98104.72;1686108;75;1962563;-72
2023/05/20 00:12:01;;;;;;;2.70;1.80;;;;;;;13.77;100.00;98116.50;1711324;75;674033;-73
2023/05/20 00:14:31;;;;;;;3.05;2.75;;;;;;;13.50;100.00;98114.25;1701643;75;769159;-72
2023/05/20 00:17:04;;;;;;;3.55;3.20;;;;;;;13.48;100.00;98113.97;1710979;75;679669;-71
2023/05/20 00:19:34;;;;;;;2.50;2.30;;;;;;;13.49;100.00;98118.97;1698882;75;942204;-71
2023/05/20 00:22:05;;;;;;;5.25;3.20;;;;;;;13.45;100.00;98123.19;1710753;75;670577;-72
2023/05/20 00:24:35;;;;;;;3.60;2.90;;;;;;;13.47;100.00;98118.72;1697985;75;990281;-73
2023/05/20 00:27:05;;;;;;;3.70;3.40;;;;;;;13.53;100.00;98116.78;1710572;75;678901;-72
2023/05/20 00:29:36;;;;;;;2.40;2.20;;;;;;;13.61;100.00;98119.84;1701981;75;752610;-71
2023/05/20 00:32:10;;;;;;;2.95;2.10;;;;;;;13.62;100.00;98121.38;1710850;75;671834;-73
2023/05/20 00:34:40;;;;;;;2.50;1.90;;;;;;;13.62;100.00;98116.63;1701446;75;751579;-73
2023/05/20 00:37:10;;;;;;;1.85;1.75;;;;;;;13.61;100.00;98117.09;1711546;75;669497;-71
2023/05/20 00:39:40;;;;;;;1.80;1.60;;;;;;;13.57;100.00;98108.31;1702295;75;750382;-72
2023/05/20 00:42:10;;;;;;;4.05;2.55;;;;;;;13.04;100.00;98101.22;1710120;75;674567;-72
2023/05/20 00:44:41;;;;;;;3.85;2.95;;;;;;;13.12;100.00;98111.28;1701400;75;744902;-73
2023/05/20 00:47:13;;;;;;;3.45;2.90;;;;;;;13.26;100.00;98109.72;1710938;75;678163;-73
2023/05/20 00:49:44;;;;;;;2.95;2.60;;;;;;;13.36;100.00;98110.34;1701715;75;749163;-73
2023/05/20 00:52:15;;;;;;;2.40;2.20;;;;;;;13.41;100.00;98115.16;1710367;75;674759;-72
2023/05/20 00:54:46;;;;;;;1.90;1.70;;;;;;;13.37;100.00;98106.34;1699321;75;924873;-71
2023/05/20 00:57:17;;;;;;;2.45;1.95;;;;;;;13.36;100.00;98104.84;1711844;75;671422;-72
2023/05/20 00:59:47;;;;;;;2.10;1.90;;;;;;;13.25;100.00;98104.69;1703113;75;740230;-72
2023/05/20 01:02:21;;;;;;;2.20;1.90;;;;;;;13.30;100.00;98101.28;1711965;75;672580;-73
2023/05/20 01:04:51;;;;;;;1.95;1.65;;;;;;;13.33;100.00;98106.56;1701817;75;756916;-72
2023/05/20 01:07:22;;;;;;;2.50;1.90;;;;;;;13.18;100.00;98105.84;1710585;75;729095;-74
2023/05/20 01:09:54;;;;;;;4.20;3.30;;;;;;;13.07;100.00;98103.75;1700808;75;752722;-71
2023/05/20 01:12:29;;;;;;;3.25;2.80;;;;;;;13.22;100.00;98100.91;1710392;75;680240;-72
2023/05/20 01:15:04;;;;;;;2.80;2.50;;;;;;;13.22;100.00;98101.66;1701782;75;742048;-74
2023/05/20 01:17:43;;;;;;;3.55;2.85;;;;;;;13.21;100.00;98096.66;1709191;75;759291;-71
2023/05/20 01:20:15;;;;;;;2.30;2.10;;;;;;;13.29;100.00;98086.78;1710897;75;680220;-71
2023/05/20 01:22:56;;;;;;;2.30;2.00;;;;;;;13.18;100.00;98084.63;1702901;75;675313;-72
2023/05/20 01:25:27;;;;;;;3.50;3.00;;;;;;;12.65;100.00;98082.22;1710580;75;683821;-73
2023/05/20 01:27:59;;;;;;;4.00;3.50;;;;;;;12.71;100.00;98080.31;1702465;75;709684;-72
2023/05/20 01:30:32;;;;;;;4.40;3.50;;;;;;;12.91;100.00;98088.56;1710869;75;675107;-73
2023/05/20 01:33:09;;;;;;;3.40;3.00;;;;;;;12.86;100.00;98088.50;1674636;75;2925310;-71
2023/05/20 01:35:41;;;;;;;2.30;2.00;;;;;;;13.07;100.00;98087.25;1702831;75;679843;-70
2023/05/20 01:38:15;;;;;;;2.90;2.60;;;;;;;12.91;100.00;98076.81;1710761;75;715695;-71
2023/05/20 01:40:45;;;;;;;2.75;2.55;;;;;;;12.98;100.00;98071.66;1702610;75;753433;-71
2023/05/20 01:43:16;;;;;;;3.70;2.60;;;;;;;12.79;100.00;98073.16;1711451;75;674725;-73
2023/05/20 01:45:47;;;;;;;2.30;2.10;;;;;;;13.02;100.00;98076.94;1703082;75;686843;-73
2023/05/20 01:48:17;;;;;;;2.30;2.10;;;;;;;13.02;100.00;98074.19;1710901;75;673917;-71
2023/05/20 01:50:47;;;;;;;2.30;2.10;;;;;;;13.04;100.00;98068.97;1700141;75;943229;-72
2023/05/20 01:53:20;;;;;;;3.30;2.50;;;;;;;12.90;100.00;98072.56;1711061;75;675851;-71
2023/05/20 01:55:50;;;;;;;3.90;3.20;;;;;;;12.84;100.00;98075.22;1703024;75;678034;-73
2023/05/20 01:58:20;;;;;;;3.10;2.60;;;;;;;12.88;100.00;98075.78;1711167;75;689230;-74
2023/05/20 02:00:51;;;;;;;3.25;2.95;;;;;;;12.75;100.00;98073.38;1703586;75;690163;-73
2023/05/20 02:03:22;;;;;;;4.80;3.60;;;;;;;12.76;100.00;98076.88;1711760;75;681802;-71
2023/05/20 02:05:52;;;;;;;4.30;3.40;;;;;;;12.83;100.00;98076.47;1679381;75;2781159;-71
2023/05/20 02:08:25;;;;;;;3.90;3.50;;;;;;;12.91;100.00;98071.31;1640694;75;6802489;-70
2023/05/20 02:10:55;;;;;;;3.30;2.70;;;;;;;12.93;100.00;98066.09;1703704;75;722065;-70
2023/05/20 02:13:25;;;;;;;2.70;2.40;;;;;;;12.98;100.00;98066.16;1711887;75;677265;-73
2023/05/20 02:15:56;;;;;;;2.80;2.20;;;;;;;13.05;100.00;98058.75;1703682;75;673241;-73
2023/05/20 02:18:26;;;;;;;2.10;1.90;;;;;;;13.12;100.00;98061.81;1709395;75;843490;-73
2023/05/20 02:20:56;;;;;;;3.50;3.00;;;;;;;12.70;100.00;98060.34;1702747;75;673332;-73
2023/05/20 02:23:29;;;;;;;4.40;3.80;;;;;;;12.57;100.00;98071.63;1710225;75;679214;-73
2023/05/20 02:25:59;;;;;;;4.70;3.60;;;;;;;12.55;100.00;98068.63;1702931;75;672125;-71
2023/05/20 02:28:30;;;;;;;4.30;3.90;;;;;;;12.52;100.00;98077.06;1710922;75;671954;-74
2023/05/20 02:31:00;;;;;;;4.95;4.45;;;;;;;12.56;100.00;98085.88;1702559;75;679293;-71
2023/05/20 02:33:30;;;;;;;6.20;4.80;;;;;;;12.54;100.00;98080.84;1710975;75;674981;-71
2023/05/20 02:36:00;;;;;;;4.90;3.70;;;;;;;12.82;100.00;98082.44;1702498;75;674707;-76
2023/05/20 02:38:33;;;;;;;4.70;3.70;;;;;;;12.84;100.00;98074.47;1709859;75;731463;-72
2023/05/20 02:41:03;;;;;;;3.25;2.95;;;;;;;12.97;100.00;98070.16;1702293;75;730348;-71
2023/05/20 02:43:35;;;;;;;3.35;2.85;;;;;;;13.07;100.00;98073.50;1710640;75;673171;-73
2023/05/20 02:46:05;;;;;;;2.50;2.30;;;;;;;13.09;100.00;98076.53;1700090;75;850043;-73
2023/05/20 02:48:35;;;;;;;3.90;3.10;;;;;;;13.10;100.00;98080.78;1710808;75;692639;-73
2023/05/20 02:51:06;;;;;;;4.70;4.05;;;;;;;12.96;100.00;98081.59;1702163;75;745905;-71
2023/05/20 02:53:39;;;;;;;4.70;4.20;;;;;;;12.94;100.00;98081.34;1708663;75;873344;-71
2023/05/20 02:56:10;;;;;;;5.30;4.80;;;;;;;12.83;100.00;98083.97;1700655;75;823320;-71
2023/05/20 02:58:40;;;;;;;6.00;4.50;;;;;;;12.95;100.00;98086.34;1711195;75;674853;-71
2023/05/20 03:01:11;;;;;;;3.95;3.55;;;;;;;13.12;100.00;98078.31;1699001;75;862762;-73
2023/05/20 03:03:42;;;;;;;2.60;2.40;;;;;;;13.23;100.00;98077.69;1710415;75;678456;-73
2023/05/20 03:06:12;;;;;;;3.00;2.70;;;;;;;13.30;100.00;98082.81;1699482;75;915983;-72
2023/05/20 03:08:45;;;;;;;2.95;2.30;;;;;;;13.36;100.00;98080.09;1697148;75;1864544;-72
2023/05/20 03:11:15;;;;;;;3.05;2.60;;;;;;;13.19;100.00;98080.63;1700689;75;808467;-72
2023/05/20 03:13:46;;;;;;;3.05;2.75;;;;;;;13.17;100.00;98076.88;1710391;75;674066;-73
2023/05/20 03:16:16;;;;;;;3.75;3.10;;;;;;;13.22;100.00;98071.41;1701957;75;753267;-71
2023/05/20 03:18:46;;;;;;;2.95;2.20;;;;;;;13.27;100.00;98063.72;1711084;75;681045;-73
2023/05/20 03:21:16;;;;;;;2.55;2.10;;;;;;;13.35;100.00;98075.84;1702608;75;749679;-77
2023/05/20 03:23:49;;;;;;;2.20;1.85;;;;;;;13.34;100.00;98075.06;1711293;75;680265;-75
2023/05/20 03:26:20;;;;;;;2.25;2.00;;;;;;;13.29;100.00;98075.03;1702430;75;740788;-74
2023/05/20 03:28:50;;;;;;;2.70;2.20;;;;;;;13.35;100.00;98081.34;1711378;75;675107;-75
2023/05/20 03:31:20;;;;;;;2.15;1.95;;;;;;;13.23;100.00;98080.44;1702645;75;750021;-76
2023/05/20 03:33:50;;;;;;;2.90;2.50;;;;;;;13.21;100.00;98086.41;1712120;75;677587;-75
2023/05/20 03:36:20;;;;;;;3.30;2.85;;;;;;;13.22;100.00;98090.66;1702402;75;748153;-73
2023/05/20 03:38:53;;;;;;;4.95;3.10;;;;;;;13.29;100.00;98089.53;1696055;75;1955567;-75
2023/05/20 03:41:24;;;;;;;2.80;2.45;;;;;;;13.32;100.00;98085.78;1702885;75;744807;-72
2023/05/20 03:43:54;;;;;;;2.70;2.20;;;;;;;13.37;100.00;98090.63;1711260;75;676122;-73
2023/05/20 03:46:24;;;;;;;2.70;2.15;;;;;;;13.41;100.00;98091.16;1702518;75;742202;-74
2023/05/20 03:48:54;;;;;;;2.50;1.90;;;;;;;13.38;100.00;98085.88;1711466;75;672855;-76
2023/05/20 03:51:24;;;;;;;2.15;1.95;;;;;;;13.30;100.00;98076.53;1702292;75;748505;-74
2023/05/20 03:53:57;;;;;;;2.35;2.00;;;;;;;13.36;100.00;98077.34;1711529;75;671506;-75
2023/05/20 03:56:32;;;;;;;1.75;1.50;;;;;;;13.39;100.00;98088.13;1703077;75;754350;-74
2023/05/20 03:59:02;;;;;;;1.50;1.40;;;;;;;13.41;100.00;98087.66;1711569;75;673229;-74
2023/05/20 04:01:32;;;;;;;1.90;1.70;;;;;;;13.43;100.00;98087.94;1702075;75;725054;-72
2023/05/20 04:04:03;;;;;;;2.45;1.75;;;;;;;13.41;100.00;98082.91;1711605;75;671032;-74
2023/05/20 04:06:33;;;;;;;2.25;2.05;;;;;;;13.31;100.00;98087.06;1702960;75;743516;-75
2023/05/20 04:09:06;;;;;;;2.15;1.95;;;;;;;13.35;100.00;98089.59;1711593;75;675551;-74
2023/05/20 04:11:36;;;;;;;2.30;2.10;;;;;;;13.33;100.00;98089.31;1702582;75;756517;-73
2023/05/20 04:14:09;;;;;;;2.00;1.80;;;;;;;13.47;100.00;98085.72;1698753;75;1784359;-74
2023/05/20 04:16:39;;;;;;;1.90;1.70;;;;;;;13.53;100.00;98088.53;1702147;75;750554;-73
2023/05/20 04:19:09;;;;;;;1.60;1.50;;;;;;;13.57;100.00;98097.31;1711643;75;671631;-72
2023/05/20 04:21:40;;;;;;;2.40;2.10;;;;;;;13.56;100.00;98093.78;1702477;75;732119;-74
2023/05/20 04:24:13;;;;;;;2.10;1.90;;;;;;;13.75;100.00;98090.72;1711603;75;671746;-73
2023/05/20 04:26:43;;;;;;;2.50;2.30;;;;;;;13.76;100.00;98084.00;1702023;75;732934;-72
2023/05/20 04:29:14;;;;;;;2.55;2.10;;;;;;;13.78;100.00;98082.28;1710761;75;675539;-73
2023/05/20 04:31:45;;;;;;;2.35;1.95;;;;;;;13.76;100.00;98081.25;1701166;75;758777;-71
2023/05/20 04:34:18;;;;;;;4.30;2.20;;;;;;;13.82;100.00;98082.03;1708401;75;835929;-72
2023/05/20 04:36:48;;;;;;;2.20;1.90;;;;;;;13.84;100.00;98085.81;1687826;75;1868111;-73
2023/05/20 04:39:21;;;;;;;2.90;2.30;;;;;;;13.90;100.00;98077.59;1709823;75;680122;-72
2023/05/20 04:41:53;;;;;;;2.70;2.05;;;;;;;13.97;100.00;98081.91;1701833;75;744782;-75
2023/05/20 04:44:25;;;;;;;1.70;1.60;;;;;;;14.11;100.00;98089.28;1710129;75;682275;-72
2023/05/20 04:46:56;;;;;;;2.20;2.00;;;;;;;14.10;100.00;98093.28;1699769;75;863050;-71
2023/05/20 04:49:27;;;;;;;2.50;1.95;;;;;;;14.25;100.00;98082.88;1708108;75;908450;-73
2023/05/20 04:51:58;;;;;;;2.10;1.90;;;;;;;14.36;100.00;98090.47;1702046;75;747749;-71
2023/05/20 04:54:31;;;;;;;2.05;1.85;;;;;;;14.45;100.00;98086.75;1706774;75;965383;-74
2023/05/20 04:57:01;;;;;;;2.55;2.20;;;;;;;14.51;100.00;98084.03;1701371;75;737427;-74
2023/05/20 04:59:32;;;;;;;4.30;3.90;;;;;;;14.31;100.00;98082.94;1709663;75;714222;-71
2023/05/20 05:02:02;;;;;;;5.30;4.75;;;;;;;14.20;100.00;98083.59;1702429;75;743610;-73
2023/05/20 05:04:33;;;;;;;6.50;5.40;;;;;;;14.04;100.00;98076.69;1711871;75;672612;-72
2023/05/20 05:07:04;;;;;;;4.95;4.40;;;;;;;14.28;100.00;98083.88;1702611;75;739960;-72
2023/05/20 05:09:37;;;;;;;4.20;3.60;;;;;;;14.44;100.00;98085.25;1711405;75;675099;-72
2023/05/20 05:12:08;;;;;;;5.30;4.40;;;;;;;14.30;100.00;98089.66;1700301;75;927108;-75
2023/05/20 05:14:38;;;;;;;3.60;3.10;;;;;;;14.56;100.00;98088.84;1708850;75;949881;-73
2023/05/20 05:17:08;;;;;;;3.05;2.75;;;;;;;14.59;100.00;98091.38;1702994;75;765621;-74
2023/05/20 05:19:39;;;;;;;3.25;2.65;;;;;;;14.54;100.00;98092.09;1711793;75;671474;-74
2023/05/20 05:22:09;;;;;;;2.50;2.20;;;;;;;14.73;100.00;98095.22;1701479;75;751364;-72
2023/05/20 05:24:43;;;;;;;2.15;1.95;;;;;;;14.83;100.00;98093.75;1707057;75;986943;-73
2023/05/20 05:27:13;;;;;;;3.65;3.20;;;;;;;14.63;100.00;98091.91;1701633;75;753084;-71
2023/05/20 05:29:43;;;;;;;4.90;3.40;;;;;;;14.71;100.00;98100.47;1707687;75;924768;-72
2023/05/20 05:32:13;;;;;;;4.45;4.00;;;;;;;14.57;100.00;98096.63;1701218;75;738099;-71
2023/05/20 05:34:44;;;;;;;5.90;4.30;;;;;;;14.49;100.00;98099.06;1710946;75;678376;-73
2023/05/20 05:37:14;;;;;;;4.55;4.10;;;;;;;14.52;100.00;98097.31;1698189;75;817040;-73
2023/05/20 05:39:47;;;;;;;7.45;4.10;;;;;;;14.62;100.00;98098.69;1708372;75;758850;-74
2023/05/20 05:42:17;;;;;;;4.80;4.15;;;;;;;14.59;100.00;98104.41;1700651;75;742231;-72
2023/05/20 05:44:47;;;;;;;4.50;3.70;;;;;;;14.54;100.00;98105.88;1709788;75;681288;-73
2023/05/20 05:47:18;;;;;;;5.10;4.45;;;;;;;14.57;100.00;98106.88;1698872;75;776499;-73
2023/05/20 05:49:48;;;;;;;5.00;4.10;;;;;;;14.98;100.00;98101.84;1710607;75;694665;-74
2023/05/20 05:52:18;;;;;;;6.10;5.10;;;;;;;14.66;100.00;98095.69;1698294;75;982002;-72
2023/05/20 05:54:51;;;;;;;6.35;5.50;;;;;;;14.81;100.00;98095.50;1710152;75;716400;-70
2023/05/20 05:57:21;;;;;;;8.20;6.85;;;;;;;14.79;100.00;98103.50;1701888;75;743871;-73
2023/05/20 05:59:52;;;;;;;6.30;5.30;;;;;;;14.90;100.00;98090.53;1707220;75;878968;-75
2023/05/20 06:02:23;;;;;;;11.10;8.80;;;;;;;15.19;100.00;98090.66;1698613;75;841860;-75
2023/05/20 06:04:56;;;;;;;13.30;10.10;;;;;;;15.63;100.00;98094.75;1710840;75;700167;-75
2023/05/20 06:07:28;;;;;;;8.20;6.80;;;;;;;15.81;100.00;98094.31;1606668;75;8252594;-75
2023/05/20 06:10:03;;;;;;;5.80;4.70;;;;;;;16.10;100.00;98089.56;1706373;75;983976;-74
2023/05/20 06:12:38;;;;;;;7.40;5.20;;;;;;;15.94;100.00;98091.06;1691021;75;1221269;-75
2023/05/20 06:15:13;;;;;;;7.60;5.20;;;;;;;16.00;100.00;98091.06;1706867;75;965497;-74
2023/05/20 06:17:44;;;;;;;5.80;4.40;;;;;;;16.28;100.00;98091.03;1695856;75;953036;-75
2023/05/20 06:20:23;;;;;;;4.80;4.00;;;;;;;16.33;100.00;98088.28;1708221;75;851781;-76
2023/05/20 06:22:54;;;;;;;9.80;6.70;;;;;;;16.49;100.00;98088.75;1699005;75;854129;-73
2023/05/20 06:25:30;;;;;;;13.90;10.70;;;;;;;16.63;100.00;98093.25;1710844;75;763821;-75
2023/05/20 06:28:03;;;;;;;7.35;6.25;;;;;;;16.73;100.00;98093.72;1701152;75;789159;-75
2023/05/20 06:30:35;;;;;;;6.60;4.40;;;;;;;16.67;100.00;98091.00;1708088;75;1006913;-74
2023/05/20 06:33:08;;;;;;;5.20;4.50;;;;;;;16.92;100.00;98093.94;1670815;75;2088834;-74
2023/05/20 06:35:42;;;;;;;6.00;4.60;;;;;;;16.73;100.00;98088.19;1670295;75;3974271;-73
2023/05/20 06:38:14;;;;;;;4.90;4.10;;;;;;;16.63;100.00;98086.97;1698350;75;911218;-74
2023/05/20 06:40:47;;;;;;;5.30;4.20;;;;;;;16.54;100.00;98082.47;1710215;75;780882;-74
2023/05/20 06:43:17;;;;;;;5.55;4.95;;;;;;;16.32;100.00;98081.25;1702719;75;744193;-72
2023/05/20 06:45:48;;;;;;;5.25;4.30;;;;;;;16.90;100.00;98093.69;1710756;75;686815;-71
2023/05/20 06:48:18;;;;;;;5.40;4.00;;;;;;;16.80;100.00;98082.19;1702323;75;752220;-73
2023/05/20 06:50:48;;;;;;;5.55;3.60;;;;;;;17.22;100.00;98075.47;1708201;75;938825;-73
2023/05/20 06:53:18;;;;;;;3.90;3.10;;;;;;;17.63;100.00;98069.19;1701581;75;748276;-71
2023/05/20 06:55:51;;;;;;;4.65;4.00;;;;;;;17.11;100.00;98069.97;1711354;75;678703;-72
2023/05/20 06:58:21;;;;;;;6.35;4.30;;;;;;;16.87;100.00;98053.25;1701453;75;760217;-72
2023/05/20 07:00:51;;;;;;;5.65;4.05;;;;;;;17.15;100.00;98055.88;1710401;75;682282;-70
2023/05/20 07:03:22;;;;;;;6.15;4.05;;;;;;;17.32;100.00;98053.78;1701860;75;740795;-71
2023/05/20 07:05:53;;;;;;;5.40;4.10;;;;;;;17.19;100.00;98053.59;1710140;75;680444;-71
2023/05/20 07:08:23;;;;;;;3.40;3.00;;;;;;;17.88;100.00;98047.13;1701597;75;750178;-73
2023/05/20 07:10:58;;;;;;;3.75;2.65;;;;;;;18.18;100.00;98049.88;1710821;75;667923;-71
2023/05/20 07:13:29;;;;;;;5.25;3.65;;;;;;;18.08;100.00;98038.38;1701245;75;771699;-70
2023/05/20 07:15:59;;;;;;;6.65;4.30;;;;;;;18.11;100.00;98042.13;1710014;75;696163;-70
2023/05/20 07:18:29;;;;;;;4.50;4.00;;;;;;;18.25;100.00;98040.25;1701611;75;749017;-72
2023/05/20 07:20:59;;;;;;;4.90;4.40;;;;;;;18.48;100.00;98038.75;1709957;75;747694;-71
2023/05/20 07:23:29;;;;;;;4.50;4.00;;;;;;;18.31;100.00;98046.50;1700963;75;754069;-72
2023/05/20 07:26:02;;;;;;;4.80;4.30;;;;;;;18.40;100.00;98039.84;1710260;75;689605;-71
2023/05/20 07:28:33;;;;;;;5.95;4.20;;;;;;;18.48;100.00;98035.22;1702047;75;737322;-71
2023/05/20 07:31:03;;;;;;;5.40;4.30;;;;;;;18.55;100.00;98036.69;1710357;75;678126;-70
2023/05/20 07:33:34;;;;;;;5.15;4.00;;;;;;;18.63;100.00;98032.78;1700947;75;753363;-74
2023/05/20 07:36:04;;;;;;;4.90;4.10;;;;;;;18.64;100.00;98030.75;1709354;75;772035;-71
2023/05/20 07:38:34;;;;;;;6.75;4.35;;;;;;;18.45;100.00;98030.72;1702047;75;763068;-72
2023/05/20 07:41:07;;;;;;;5.75;4.40;;;;;;;18.67;100.00;98038.78;1710968;75;676633;-73
2023/05/20 07:43:37;;;;;;;5.60;4.15;;;;;;;18.65;100.00;98024.69;1702017;75;751145;-74
2023/05/20 07:46:07;;;;;;;5.70;4.30;;;;;;;18.31;100.00;98036.16;1710063;75;679684;-75
2023/05/20 07:48:37;;;;;;;6.05;4.15;;;;;;;18.57;100.00;98034.09;1701630;75;749084;-74
2023/05/20 07:51:08;;;;;;;5.00;4.00;;;;;;;18.64;100.00;98031.53;1711078;75;676020;-70
2023/05/20 07:53:38;;;;;;;4.15;3.70;;;;;;;18.78;100.00;98031.63;1701848;75;752550;-71
2023/05/20 07:56:11;;;;;;;5.35;4.70;;;;;;;18.31;100.00;98038.91;1710394;75;679506;-71
2023/05/20 07:58:43;;;;;;;4.25;3.85;;;;;;;18.22;100.00;98041.28;1701883;75;742338;-72
2023/05/20 08:01:13;;;;;;;5.50;3.80;;;;;;;18.22;100.00;98039.25;1710385;75;669492;-71
2023/05/20 08:03:44;;;;;;;7.85;4.80;;;;;;;18.40;100.00;98037.06;1701920;75;746062;-70
2023/05/20 08:06:14;;;;;;;5.40;4.30;;;;;;;18.30;100.00;98042.97;1711048;75;672436;-74
2023/05/20 08:08:44;;;;;;;4.65;3.85;;;;;;;18.62;100.00;98036.84;1699835;75;816255;-72
2023/05/20 08:11:17;;;;;;;4.80;4.05;;;;;;;18.59;100.00;98037.13;1708706;75;852109;-74
2023/05/20 08:13:47;;;;;;;4.75;4.15;;;;;;;19.09;100.00;98024.69;1701667;75;752384;-73
2023/05/20 08:16:18;;;;;;;5.60;4.40;;;;;;;19.16;100.00;98018.53;1710755;75;670872;-72
2023/05/20 08:18:48;;;;;;;5.60;5.00;;;;;;;19.19;100.00;98020.25;1701290;75;743242;-76
2023/05/20 08:21:18;;;;;;;4.95;4.25;;;;;;;19.28;100.00;98014.31;1709861;75;780137;-74
2023/05/20 08:23:50;;;;;;;4.20;3.75;;;;;;;19.38;96.74;98011.91;1701109;75;753358;-74
2023/05/20 08:26:23;;;;;;;4.20;3.30;;;;;;;19.93;95.62;98006.75;1710550;75;673070;-71
2023/05/20 08:28:53;;;;;;;7.20;4.15;;;;;;;19.50;93.93;98009.72;1701346;75;752133;-71
2023/05/20 08:31:23;;;;;;;5.55;3.65;;;;;;;19.90;90.33;98001.53;1710867;75;670565;-75
2023/05/20 08:33:53;;;;;;;4.75;4.25;;;;;;;20.28;90.96;98002.13;1701830;75;749529;-73
2023/05/20 08:36:24;;;;;;;5.05;4.15;;;;;;;20.39;88.04;97998.38;1710452;75;674303;-72
2023/05/20 08:38:55;;;;;;;4.20;3.50;;;;;;;20.09;87.73;97985.53;1702092;75;746076;-73
2023/05/20 08:41:28;;;;;;;4.20;3.50;;;;;;;20.67;86.63;97991.53;1710344;75;672927;-73
2023/05/20 08:43:59;;;;;;;4.70;3.45;;;;;;;20.66;85.34;97984.47;1701775;75;754366;-73
2023/05/20 08:46:30;;;;;;;3.75;3.40;;;;;;;20.38;89.82;97980.19;1710654;75;673099;-72
2023/05/20 08:49:00;;;;;;;4.55;3.70;;;;;;;20.66;84.72;97982.44;1702102;75;755167;-71
2023/05/20 08:51:31;;;;;;;3.50;3.20;;;;;;;21.13;83.12;97967.75;1710740;75;674346;-73
2023/05/20 08:54:02;;;;;;;4.20;3.75;;;;;;;19.96;95.04;97977.94;1701992;75;751192;-74
2023/05/20 08:56:37;;;;;;;4.30;3.55;;;;;;;20.79;84.29;97970.53;1710918;75;674790;-71
2023/05/20 08:59:07;;;;;;;3.85;3.00;;;;;;;21.17;85.00;97970.97;1701835;75;745859;-70
2023/05/20 09:01:43;;;;;;;3.40;2.20;;;;;;;21.30;79.53;97963.84;1710271;75;693228;-71
2023/05/20 09:04:13;;;;;;;4.20;2.80;;;;;;;21.73;82.06;97954.97;1698605;75;979907;-71
2023/05/20 09:06:47;;;;;;;4.55;3.25;;;;;;;21.82;77.28;97951.72;1711067;75;676702;-70
2023/05/20 09:09:17;;;;;;;3.50;3.10;;;;;;;22.03;73.00;97951.69;1686262;75;1947678;-72
2023/05/20 09:11:50;;;;;;;5.60;4.40;;;;;;;21.77;72.27;97952.59;1710731;75;672024;-70
2023/05/20 09:14:20;;;;;;;5.00;4.30;;;;;;;21.73;75.63;97951.44;1698420;75;967714;-71
2023/05/20 09:16:51;;;;;;;5.80;4.20;;;;;;;21.98;71.31;97946.97;1711152;75;673984;-73
2023/05/20 09:19:24;;;;;;;8.60;4.05;;;;;;;21.95;71.88;97952.91;1702091;75;740154;-74
2023/05/20 09:21:57;;;;;;;6.00;4.80;;;;;;;22.25;69.44;97947.56;1711086;75;673011;-72
2023/05/20 09:24:28;;;;;;;3.55;3.25;;;;;;;23.00;68.13;97938.59;1701711;75;744140;-71
2023/05/20 09:27:01;;;;;;;4.60;4.10;;;;;;;23.11;66.32;97957.78;1710108;75;670093;-69
2023/05/20 09:29:35;;;;;;;6.10;4.30;;;;;;;22.82;64.69;97955.06;1701634;75;753842;-72
2023/05/20 09:32:06;;;;;;;5.15;4.10;;;;;;;22.84;64.60;97952.47;1710777;75;677576;-75
2023/05/20 09:34:37;;;;;;;5.90;4.00;;;;;;;22.78;65.81;97946.31;1697478;75;955267;-71
2023/05/20 09:37:16;;;;;;;4.70;3.80;;;;;;;22.12;62.18;97953.94;1675936;75;3459878;-73
2023/05/20 09:39:59;;;;;;;3.75;3.40;;;;;;;23.04;63.36;97948.09;1700775;75;726197;-73
2023/05/20 09:42:42;;;;;;;4.15;2.80;;;;;;;23.34;61.48;97941.06;1701857;75;681430;-71
2023/05/20 09:45:13;;;;;;;3.20;2.70;;;;;;;23.68;61.79;97940.72;1709950;75;672473;-75
2023/05/20 09:47:43;;;;;;;3.30;2.70;;;;;;;23.66;60.38;97937.72;1703082;75;674660;-70
2023/05/20 09:50:15;;;;;;;2.70;2.30;;;;;;;24.05;59.44;97937.72;1711823;75;672046;-71
2023/05/20 09:52:46;;;;;;;4.50;3.80;;;;;;;23.91;58.53;97937.19;1687076;75;1963825;-73
2023/05/20 09:55:18;;;;;;;5.70;3.50;;;;;;;24.35;58.13;97932.06;1711172;75;675187;-69
2023/05/20 09:57:51;;;;;;;5.10;3.15;;;;;;;24.63;56.89;97931.06;1701468;75;765134;-71
2023/05/20 10:00:21;;;;;;;6.20;3.70;;;;;;;24.49;54.95;97920.69;1710088;75;674019;-73
2023/05/20 10:02:53;;;;;;;3.65;3.20;;;;;;;24.52;54.07;97925.13;1701762;75;752785;-70
2023/05/20 10:05:27;;;;;;;3.50;2.80;;;;;;;24.99;52.65;97924.34;1710451;75;674198;-73
2023/05/20 10:08:45;;;;;;;3.80;3.10;;;;;;;24.23;54.95;97928.19;1701180;75;759878;-72
2023/05/20 10:11:28;;;;;;;4.50;3.65;;;;;;;24.83;53.75;97923.69;1701901;75;744700;-75
2023/05/20 10:14:34;;;;;;;4.90;3.90;;;;;;;24.89;53.49;97923.44;1703285;75;669171;-72
2023/05/20 10:17:12;;;;;;;3.75;3.35;;;;;;;25.07;51.47;97911.03;1702834;75;673609;-73
2023/05/20 10:19:43;;;;;;;4.30;3.50;;;;;;;24.99;51.38;97917.97;1710602;75;673625;-74
2023/05/20 10:22:14;;;;;;;6.50;3.30;;;;;;;25.37;49.08;97920.56;1703349;75;675168;-73
2023/05/20 10:24:46;;;;;;;4.20;3.80;;;;;;;24.67;51.11;97922.25;1710849;75;673427;-71
2023/05/20 10:27:17;;;;;;;4.70;3.40;;;;;;;25.09;51.25;97910.47;1702188;75;753563;-70
2023/05/20 10:29:55;;;;;;;3.55;2.95;;;;;;;25.06;50.62;97925.59;1711204;75;674023;-70
2023/05/20 10:32:30;;;;;;;3.30;3.00;;;;;;;25.16;51.08;97915.28;1701755;75;747095;-72
2023/05/20 10:35:04;;;;;;;3.80;3.30;;;;;;;25.04;50.17;97911.44;1711112;75;672867;-73
2023/05/20 10:37:44;;;;;;;3.95;3.45;;;;;;;25.24;50.71;97904.78;1701789;75;734716;-74
2023/05/20 10:40:17;;;;;;;4.95;3.75;;;;;;;25.36;50.54;97910.69;1702997;75;676858;-70
2023/05/20 10:42:47;;;;;;;4.80;4.10;;;;;;;25.03;51.08;97919.09;1709747;75;682024;-70
2023/05/20 10:45:32;;;;;;;6.80;4.40;;;;;;;25.09;50.32;97908.41;1703147;75;679748;-70
2023/05/20 10:48:02;;;;;;;4.95;3.70;;;;;;;24.58;51.41;97911.66;1711027;75;671790;-74
2023/05/20 10:50:38;;;;;;;4.50;4.10;;;;;;;24.39;50.80;97907.25;1703273;75;675825;-73
2023/05/20 10:53:09;;;;;;;3.80;3.50;;;;;;;24.90;50.24;97904.63;1710976;75;674056;-70
2023/05/20 10:55:41;;;;;;;5.85;3.90;;;;;;;24.81;51.83;97905.97;1702399;75;746600;-74
2023/05/20 10:58:13;;;;;;;8.60;3.70;;;;;;;24.27;51.51;97899.81;1711491;75;678140;-71
2023/05/20 11:00:46;;;;;;;4.25;3.85;;;;;;;24.44;51.49;97900.69;1703906;75;747137;-68
2023/05/20 11:03:17;;;;;;;5.70;4.35;;;;;;;24.32;51.41;97896.09;1712700;75;675649;-70
2023/05/20 11:05:48;;;;;;;6.10;4.30;;;;;;;24.49;51.53;97898.28;1703358;75;762323;-72
2023/05/20 11:08:19;;;;;;;4.50;4.00;;;;;;;24.41;51.63;97893.44;1711664;75;679558;-72
2023/05/20 11:10:49;;;;;;;5.45;4.40;;;;;;;24.20;52.52;97893.69;1702443;75;741460;-72
2023/05/20 11:13:20;;;;;;;4.40;3.90;;;;;;;24.31;53.30;97888.97;1710648;75;673056;-69
2023/05/20 11:15:53;;;;;;;5.40;4.65;;;;;;;24.10;53.90;97884.41;1702527;75;743655;-72
2023/05/20 11:18:23;;;;;;;5.15;4.60;;;;;;;24.28;52.20;97888.06;1710835;75;692684;-69
2023/05/20 11:20:54;;;;;;;5.15;4.15;;;;;;;24.81;50.97;97889.16;1689128;75;1788382;-69
2023/05/20 11:23:25;;;;;;;4.20;3.50;;;;;;;25.20;52.26;97882.00;1711162;75;682901;-73
2023/05/20 11:25:56;;;;;;;6.75;4.55;;;;;;;25.17;50.03;97882.41;1702129;75;754499;-71
2023/05/20 11:28:27;;;;;;;9.20;4.20;;;;;;;25.03;50.07;97877.06;1711143;75;678393;-71
2023/05/20 11:30:59;;;;;;;4.90;3.90;;;;;;;25.13;50.19;97871.56;1701900;75;749337;-72
2023/05/20 11:33:30;;;;;;;6.80;4.90;;;;;;;24.71;50.31;97868.69;1710343;75;679413;-70
2023/05/20 11:36:00;;;;;;;4.65;3.90;;;;;;;25.51;48.95;97868.50;1702098;75;753290;-72
2023/05/20 11:38:32;;;;;;;4.70;3.50;;;;;;;25.44;47.74;97851.75;1710998;75;670427;-70
2023/05/20 11:41:02;;;;;;;5.70;3.75;;;;;;;25.46;48.85;97852.66;1702356;75;749249;-70